createdAt,value
2023-02-12T00:01:16.006Z,100961.75
2023-02-12T00:03:43.464Z,100961.75
2023-02-12T00:06:14.204Z,100948.28
2023-02-12T00:08:42.816Z,100961.91
2023-02-12T00:11:11.465Z,100962.09
2023-02-12T00:13:38.840Z,100965.81
2023-02-12T00:16:08.761Z,100959.78
2023-02-12T00:18:36.175Z,100957.91
2023-02-12T00:21:03.749Z,100953.38
2023-02-12T00:23:32.325Z,100964.47
2023-02-12T00:25:59.203Z,100962.63
2023-02-12T00:28:26.208Z,100960.94
2023-02-12T00:30:53.299Z,100952.03
2023-02-12T00:33:20.310Z,100952.22
2023-02-12T00:35:56.144Z,100948.66
2023-02-12T00:38:23.276Z,100946.84
2023-02-12T00:40:51.694Z,100949.53
2023-02-12T00:43:18.642Z,100941.44
2023-02-12T00:45:45.502Z,100940.78
2023-02-12T00:48:12.541Z,100947.00
2023-02-12T00:50:41.319Z,100953.25
2023-02-12T00:53:08.265Z,100946.16
2023-02-12T00:55:35.178Z,100942.66
2023-02-12T00:58:03.460Z,100948.19
2023-02-12T01:00:30.465Z,100938.47
2023-02-12T01:02:57.630Z,100941.16
2023-02-12T01:05:25.431Z,100943.00
2023-02-12T01:07:53.926Z,100937.78
2023-02-12T01:10:21.260Z,100933.25
2023-02-12T01:12:48.616Z,100937.78
2023-02-12T01:15:17.889Z,100930.72
2023-02-12T01:17:44.935Z,100937.78
2023-02-12T01:20:19.924Z,100934.44
2023-02-12T01:22:46.961Z,100937.13
2023-02-12T01:25:14.263Z,100937.13
2023-02-12T01:27:41.462Z,100931.06
2023-02-12T01:30:13.777Z,100940.00
2023-02-12T01:32:42.162Z,100944.53
2023-02-12T01:35:10.555Z,100933.13
2023-02-12T01:37:38.524Z,100941.19
2023-02-12T01:40:08.179Z,100945.72
2023-02-12T01:42:35.439Z,100947.59
2023-02-12T01:45:54.136Z,100947.59
2023-02-12T01:48:26.340Z,100944.25
2023-02-12T01:50:56.006Z,100947.97
2023-02-12T01:53:28.867Z,100945.09
2023-02-12T01:55:59.372Z,100938.84
2023-02-12T01:58:30.023Z,100940.69
2023-02-12T02:00:57.799Z,100937.19
2023-02-12T02:03:26.211Z,100934.66
2023-02-12T02:05:59.480Z,100939.19
2023-02-12T02:08:26.470Z,100932.81
2023-02-12T02:10:53.949Z,100928.44
2023-02-12T02:13:39.653Z,100928.44
2023-02-12T02:16:14.775Z,100927.63
2023-02-12T02:18:51.962Z,100930.47
2023-02-12T02:21:45.610Z,100927.78
2023-02-12T02:24:31.769Z,100928.81
2023-02-12T02:27:34.380Z,100937.69
2023-02-12T02:30:20.129Z,100931.50
2023-02-12T02:32:55.481Z,100931.69
2023-02-12T02:35:31.416Z,100929.16
2023-02-12T02:38:07.995Z,100931.84
2023-02-12T02:40:42.343Z,100924.78
2023-02-12T02:43:15.765Z,100930.19
2023-02-12T02:45:48.451Z,100929.16
2023-02-12T02:48:20.037Z,100926.47
2023-02-12T02:50:51.694Z,100922.91
2023-02-12T02:53:24.727Z,100920.41
2023-02-12T02:55:54.676Z,100917.72
2023-02-12T02:58:26.626Z,100914.03
2023-02-12T03:00:59.220Z,100913.34
2023-02-12T03:03:32.317Z,100902.59
2023-02-12T03:06:05.294Z,100906.13
2023-02-12T03:08:37.871Z,100905.28
2023-02-12T03:11:10.916Z,100900.91
2023-02-12T03:13:42.921Z,100901.94
2023-02-12T03:16:16.342Z,100899.25
2023-02-12T03:18:49.716Z,100903.78
2023-02-12T03:21:22.518Z,100902.75
2023-02-12T03:23:57.129Z,100899.25
2023-02-12T03:26:27.465Z,100906.47
2023-02-12T03:28:54.496Z,100905.78
2023-02-12T03:31:33.743Z,100905.63
2023-02-12T03:34:09.656Z,100899.41
2023-02-12T03:36:45.845Z,100900.41
2023-02-12T03:39:20.134Z,100895.88
2023-02-12T03:41:52.174Z,100894.22
2023-02-12T03:44:30.239Z,100897.94
2023-02-12T03:47:06.025Z,100889.84
2023-02-12T03:49:39.485Z,100897.94
2023-02-12T03:52:06.459Z,100893.38
2023-02-12T03:54:33.647Z,100894.22
2023-02-12T03:57:06.617Z,100889.00
2023-02-12T03:59:37.653Z,100889.00
2023-02-12T04:02:07.025Z,100879.09
2023-02-12T04:04:34.823Z,100893.38
2023-02-12T04:07:02.142Z,100888.16
2023-02-12T04:09:31.401Z,100884.66
2023-02-12T04:12:27.088Z,100889.19
2023-02-12T04:15:01.365Z,100889.19
2023-02-12T04:17:40.287Z,100886.66
2023-02-12T04:20:14.441Z,100891.22
2023-02-12T04:22:52.749Z,100890.38
2023-02-12T04:25:28.575Z,100900.28
2023-02-12T04:28:00.730Z,100894.09
2023-02-12T04:30:35.495Z,100901.31
2023-02-12T04:33:06.510Z,100895.06
2023-02-12T04:35:40.663Z,100898.63
2023-02-12T04:38:14.366Z,100893.22
2023-02-12T04:40:42.618Z,100902.34
2023-02-12T04:43:09.839Z,100895.28
2023-02-12T04:45:37.909Z,100895.28
2023-02-12T04:48:06.742Z,100889.69
2023-02-12T04:50:40.358Z,100896.09
2023-02-12T04:53:07.417Z,100892.59
2023-02-12T04:55:34.434Z,100892.75
2023-02-12T04:58:01.437Z,100898.97
2023-02-12T05:00:28.559Z,100894.25
2023-02-12T05:02:55.488Z,100892.59
2023-02-12T05:05:24.204Z,100894.25
2023-02-12T05:07:51.180Z,100886.19
2023-02-12T05:10:18.204Z,100887.22
2023-02-12T05:12:45.092Z,100882.00
2023-02-12T05:15:12.219Z,100883.66
2023-02-12T05:17:39.095Z,100878.28
2023-02-12T05:20:06.965Z,100877.44
2023-02-12T05:22:35.208Z,100875.78
2023-02-12T05:25:02.193Z,100871.25
2023-02-12T05:27:29.038Z,100869.53
2023-02-12T05:29:56.892Z,100871.41
2023-02-12T05:32:23.900Z,100868.72
2023-02-12T05:34:50.814Z,100868.72
2023-02-12T05:37:17.703Z,100872.44
2023-02-12T05:39:45.939Z,100864.38
2023-02-12T05:42:12.779Z,100868.03
2023-02-12T05:44:39.639Z,100870.72
2023-02-12T05:47:06.499Z,100872.44
2023-02-12T05:49:33.457Z,100863.69
2023-02-12T05:52:00.293Z,100869.91
2023-02-12T05:54:30.278Z,100878.16
2023-02-12T05:56:58.506Z,100873.59
2023-02-12T05:59:25.531Z,100879.81
2023-02-12T06:01:53.084Z,100871.09
2023-02-12T06:04:23.707Z,100872.78
2023-02-12T06:06:51.613Z,100871.75
2023-02-12T06:09:18.701Z,100876.78
2023-02-12T06:11:45.817Z,100878.47
2023-02-12T06:14:16.601Z,100877.78
2023-02-12T06:16:45.786Z,100875.38
2023-02-12T06:19:13.069Z,100876.19
2023-02-12T06:21:40.057Z,100875.66
2023-02-12T06:24:07.143Z,100876.81
2023-02-12T06:26:34.137Z,100869.88
2023-02-12T06:29:01.930Z,100869.81
2023-02-12T06:31:32.193Z,100874.66
2023-02-12T06:34:01.580Z,100878.13
2023-02-12T06:36:28.905Z,100881.44
2023-02-12T06:38:56.197Z,100876.00
2023-02-12T06:41:24.113Z,100871.38
2023-02-12T06:43:51.405Z,100881.91
2023-02-12T06:46:18.658Z,100881.84
2023-02-12T06:48:46.886Z,100882.38
2023-02-12T06:51:15.593Z,100873.22
2023-02-12T06:53:43.537Z,100870.44
2023-02-12T06:56:13.341Z,100880.16
2023-02-12T06:58:41.943Z,100880.25
2023-02-12T07:01:13.329Z,100876.59
2023-02-12T07:03:41.244Z,100873.81
2023-02-12T07:06:10.551Z,100879.28
2023-02-12T07:08:37.530Z,100878.56
2023-02-12T07:11:05.085Z,100881.34
2023-02-12T07:13:34.745Z,100882.44
2023-02-12T07:16:04.929Z,100880.88
2023-02-12T07:18:31.958Z,100880.09
2023-02-12T07:20:58.863Z,100888.44
2023-02-12T07:23:27.119Z,100888.78
2023-02-12T07:25:57.380Z,100880.09
2023-02-12T07:28:24.617Z,100882.84
2023-02-12T07:30:51.637Z,100877.28
2023-02-12T07:33:18.513Z,100882.13
2023-02-12T07:35:45.523Z,100876.34
2023-02-12T07:38:12.849Z,100879.47
2023-02-12T07:40:41.099Z,100871.00
2023-02-12T07:43:08.004Z,100874.16
2023-02-12T07:45:36.291Z,100866.91
2023-02-12T07:48:03.352Z,100871.06
2023-02-12T07:50:30.287Z,100868.81
2023-02-12T07:52:57.184Z,100863.88
2023-02-12T07:55:24.098Z,100864.50
2023-02-12T07:57:52.384Z,100866.84
2023-02-12T08:00:20.059Z,100861.69
2023-02-12T08:02:52.076Z,100860.00
2023-02-12T08:05:19.076Z,100859.63
2023-02-12T08:07:45.965Z,100862.34
2023-02-12T08:10:12.968Z,100857.75
2023-02-12T08:12:39.850Z,100862.59
2023-02-12T08:15:09.302Z,100856.16
2023-02-12T08:17:36.292Z,100850.56
2023-02-12T08:20:03.258Z,100852.22
2023-02-12T08:22:30.371Z,100850.34
2023-02-12T08:24:57.229Z,100844.97
2023-02-12T08:27:24.182Z,100852.69
2023-02-12T08:29:51.074Z,100852.50
2023-02-12T08:32:19.324Z,100855.00
2023-02-12T08:34:46.195Z,100852.31
2023-02-12T08:37:13.113Z,100854.81
2023-02-12T08:39:40.121Z,100856.69
2023-02-12T08:42:07.026Z,100855.84
2023-02-12T08:44:33.911Z,100859.59
2023-02-12T08:47:00.921Z,100858.56
2023-02-12T08:49:30.234Z,100861.25
2023-02-12T08:51:59.853Z,100852.97
2023-02-12T08:54:28.419Z,100855.66
2023-02-12T08:56:56.729Z,100852.75
2023-02-12T08:59:24.001Z,100851.53
2023-02-12T09:01:52.237Z,100849.47
2023-02-12T09:04:21.883Z,100854.06
2023-02-12T09:06:51.015Z,100847.59
2023-02-12T09:09:18.317Z,100845.75
2023-02-12T09:11:45.203Z,100846.56
2023-02-12T09:14:15.400Z,100840.34
2023-02-12T09:16:42.704Z,100855.53
2023-02-12T09:19:13.883Z,100860.88
2023-02-12T09:21:41.168Z,100847.41
2023-02-12T09:24:09.866Z,100855.38
2023-02-12T09:26:37.292Z,100858.19
2023-02-12T09:29:04.727Z,100863.59
2023-02-12T09:31:32.667Z,100861.63
2023-02-12T09:34:02.065Z,100858.78
2023-02-12T09:36:29.623Z,100865.91
2023-02-12T09:38:57.435Z,100861.25
2023-02-12T09:41:48.888Z,100864.00
2023-02-12T09:44:19.940Z,100868.22
2023-02-12T09:46:51.745Z,100863.28
2023-02-12T09:49:28.230Z,100860.63
2023-02-12T09:51:55.738Z,100856.50
2023-02-12T09:54:29.007Z,100860.50
2023-02-12T09:57:01.431Z,100857.38
2023-02-12T09:59:33.628Z,100852.63
2023-02-12T10:02:00.607Z,100856.78
2023-02-12T10:04:28.872Z,100859.13
2023-02-12T10:07:07.108Z,100857.88
2023-02-12T10:09:49.259Z,100859.16
2023-02-12T10:12:26.653Z,100853.34
2023-02-12T10:15:10.577Z,100851.06
2023-02-12T10:17:42.854Z,100847.13
2023-02-12T10:20:29.114Z,100847.81
2023-02-12T10:23:13.046Z,100856.56
2023-02-12T10:25:48.141Z,100865.53
2023-02-12T10:28:20.881Z,100861.56
2023-02-12T10:30:53.248Z,100863.25
2023-02-12T10:33:27.138Z,100859.91
2023-02-12T10:36:00.354Z,100855.31
2023-02-12T10:38:31.465Z,100865.94
2023-02-12T10:41:01.857Z,100857.63
2023-02-12T10:43:30.693Z,100859.50
2023-02-12T10:45:58.347Z,100856.59
2023-02-12T10:48:30.157Z,100847.47
2023-02-12T10:51:19.987Z,100850.97
2023-02-12T10:53:47.213Z,100856.59
2023-02-12T10:56:18.049Z,100848.28
2023-02-12T10:58:55.111Z,100840.56
2023-02-12T11:01:26.307Z,100844.06
2023-02-12T11:03:54.298Z,100832.34
2023-02-12T11:06:23.831Z,100826.03
2023-02-12T11:08:50.742Z,100826.47
2023-02-12T11:11:20.859Z,100825.63
2023-02-12T11:13:57.246Z,100823.91
2023-02-12T11:16:29.749Z,100835.97
2023-02-12T11:19:02.341Z,100821.78
2023-02-12T11:21:29.352Z,100832.19
2023-02-12T11:23:56.307Z,100827.16
2023-02-12T11:26:26.266Z,100824.03
2023-02-12T11:28:57.209Z,100819.00
2023-02-12T11:31:26.548Z,100820.88
2023-02-12T11:34:14.708Z,100817.53
2023-02-12T11:36:44.054Z,100810.47
2023-02-12T11:39:19.254Z,100810.84
2023-02-12T11:41:51.620Z,100809.56
2023-02-12T11:44:22.401Z,100806.22
2023-02-12T11:46:51.976Z,100801.84
2023-02-12T11:49:21.768Z,100801.84
2023-02-12T11:51:49.788Z,100809.13
2023-02-12T11:54:21.644Z,100799.72
2023-02-12T11:56:48.964Z,100797.03
2023-02-12T11:59:31.405Z,100804.50
2023-02-12T12:02:04.359Z,100802.19
2023-02-12T12:04:35.641Z,100787.63
2023-02-12T12:07:12.103Z,100789.34
2023-02-12T12:09:44.620Z,100790.53
2023-02-12T12:12:17.010Z,100790.34
2023-02-12T12:15:08.852Z,100790.34
2023-02-12T12:18:02.074Z,100780.31
2023-02-12T12:20:32.931Z,100780.94
2023-02-12T12:23:06.084Z,100789.03
2023-02-12T12:25:40.881Z,100777.41
2023-02-12T12:28:19.303Z,100784.66
2023-02-12T12:31:00.742Z,100781.97
2023-02-12T12:33:32.740Z,100777.41
2023-02-12T12:36:33.022Z,100773.66
2023-02-12T12:39:07.217Z,100778.44
2023-02-12T12:41:47.965Z,100776.94
2023-02-12T12:44:31.874Z,100778.84
2023-02-12T12:47:13.277Z,100786.09
2023-02-12T12:50:07.915Z,100784.25
2023-02-12T12:53:07.002Z,100778.19
2023-02-12T12:55:49.006Z,100779.41
2023-02-12T12:58:30.818Z,100776.91
2023-02-12T13:01:16.157Z,100776.91
2023-02-12T13:04:00.841Z,100775.25
2023-02-12T13:06:38.424Z,100764.44
2023-02-12T13:09:33.854Z,100769.84
2023-02-12T13:12:28.200Z,100767.31
2023-02-12T13:15:03.556Z,100769.22
2023-02-12T13:17:36.939Z,100770.03
2023-02-12T13:20:12.468Z,100771.06
2023-02-12T13:22:47.561Z,100765.66
2023-02-12T13:25:23.908Z,100764.63
2023-02-12T13:27:52.509Z,100761.31
2023-02-12T13:30:23.592Z,100760.06
2023-02-12T13:33:00.584Z,100759.88
2023-02-12T13:35:31.612Z,100761.34
2023-02-12T13:38:00.549Z,100770.06
2023-02-12T13:40:29.463Z,100766.13
2023-02-12T13:43:01.913Z,100761.19
2023-02-12T13:45:40.906Z,100754.63
2023-02-12T13:48:24.654Z,100745.09
2023-02-12T13:51:01.514Z,100748.03
2023-02-12T13:53:37.098Z,100738.50
2023-02-12T13:56:17.525Z,100748.09
2023-02-12T13:58:49.627Z,100745.84
2023-02-12T14:01:37.567Z,100742.75
2023-02-12T14:04:32.342Z,100744.41
2023-02-12T14:07:04.129Z,100746.91
2023-02-12T14:09:37.821Z,100743.16
2023-02-12T14:12:07.667Z,100738.38
2023-02-12T14:14:38.042Z,100738.84
2023-02-12T14:17:42.087Z,100739.03
2023-02-12T14:20:22.191Z,100742.78
2023-02-12T14:23:24.657Z,100732.78
2023-02-12T14:26:03.594Z,100728.59
2023-02-12T14:28:47.575Z,100726.09
2023-02-12T14:31:34.219Z,100722.78
2023-02-12T14:34:38.361Z,100722.31
2023-02-12T14:37:31.991Z,100720.03
2023-02-12T14:40:32.222Z,100723.13
2023-02-12T14:43:01.928Z,100721.66
2023-02-12T14:45:32.059Z,100724.75
2023-02-12T14:47:59.653Z,100721.00
2023-02-12T14:50:35.895Z,100728.13
2023-02-12T14:53:29.615Z,100713.94
2023-02-12T14:55:57.777Z,100717.69
2023-02-12T14:58:30.717Z,100716.03
2023-02-12T15:00:59.482Z,100726.00
2023-02-12T15:03:34.514Z,100719.75
2023-02-12T15:06:07.297Z,100721.81
2023-02-12T15:08:44.730Z,100722.63
2023-02-12T15:11:23.919Z,100712.06
2023-02-12T15:13:57.239Z,100716.81
2023-02-12T15:16:35.719Z,100715.16
2023-02-12T15:19:12.358Z,100710.13
2023-02-12T15:21:39.558Z,100710.97
2023-02-12T15:24:08.486Z,100703.88
2023-02-12T15:26:41.458Z,100707.44
2023-02-12T15:29:19.543Z,100705.94
2023-02-12T15:31:51.965Z,100706.78
2023-02-12T15:34:22.657Z,100704.28
2023-02-12T15:36:49.963Z,100707.78
2023-02-12T15:39:20.352Z,100701.75
2023-02-12T15:41:47.614Z,100704.47
2023-02-12T15:44:27.677Z,100702.81
2023-02-12T15:47:12.977Z,100693.84
2023-02-12T15:49:42.137Z,100696.75
2023-02-12T15:52:16.909Z,100688.66
2023-02-12T15:54:44.821Z,100694.25
2023-02-12T15:57:14.501Z,100688.66
2023-02-12T15:59:43.744Z,100689.69
2023-02-12T16:02:19.761Z,100691.72
2023-02-12T16:04:47.056Z,100697.13
2023-02-12T16:07:15.270Z,100690.91
2023-02-12T16:09:43.452Z,100693.63
2023-02-12T16:12:15.378Z,100691.09
2023-02-12T16:14:47.864Z,100692.16
2023-02-12T16:17:26.400Z,100691.31
2023-02-12T16:19:55.453Z,100695.84
2023-02-12T16:22:27.518Z,100694.19
2023-02-12T16:24:58.725Z,100696.91
2023-02-12T16:27:28.728Z,100700.84
2023-02-12T16:29:59.854Z,100693.78
2023-02-12T16:32:34.524Z,100706.25
2023-02-12T16:35:03.935Z,100700.00
2023-02-12T16:37:48.047Z,100697.28
2023-02-12T16:40:27.843Z,100697.47
2023-02-12T16:42:59.681Z,100697.47
2023-02-12T16:45:36.001Z,100702.25
2023-02-12T16:48:08.966Z,100708.69
2023-02-12T16:50:39.354Z,100715.97
2023-02-12T16:53:08.429Z,100712.41
2023-02-12T16:55:36.767Z,100711.78
2023-02-12T16:58:03.694Z,100722.41
2023-02-12T17:00:31.359Z,100725.28
2023-02-12T17:02:59.635Z,100731.72
2023-02-12T17:05:26.591Z,100729.22
2023-02-12T17:07:53.648Z,100726.53
2023-02-12T17:10:20.558Z,100726.53
2023-02-12T17:12:48.507Z,100729.22
2023-02-12T17:15:21.327Z,100730.25
2023-02-12T17:17:48.217Z,100741.88
2023-02-12T17:20:17.533Z,100739.38
2023-02-12T17:22:50.114Z,100737.72
2023-02-12T17:25:17.754Z,100744.16
2023-02-12T17:27:45.001Z,100750.16
2023-02-12T17:30:15.963Z,100746.00
2023-02-12T17:32:42.954Z,100741.44
2023-02-12T17:35:10.338Z,100748.88
2023-02-12T17:37:38.842Z,100742.69
2023-02-12T17:40:07.449Z,100748.88
2023-02-12T17:42:34.340Z,100743.72
2023-02-12T17:45:01.195Z,100744.72
2023-02-12T17:47:28.267Z,100749.13
2023-02-12T17:49:57.599Z,100747.41
2023-02-12T17:52:24.466Z,100746.59
2023-02-12T17:54:52.774Z,100749.31
2023-02-12T17:57:19.619Z,100749.50
2023-02-12T17:59:46.500Z,100745.94
2023-02-12T18:02:13.441Z,100745.13
2023-02-12T18:04:40.364Z,100751.34
2023-02-12T18:07:07.284Z,100749.69
2023-02-12T18:09:36.169Z,100754.22
2023-02-12T18:12:05.053Z,100753.41
2023-02-12T18:14:31.973Z,100752.56
2023-02-12T18:16:59.138Z,100747.38
2023-02-12T18:19:26.311Z,100748.22
2023-02-12T18:21:53.174Z,100750.06
2023-02-12T18:24:20.147Z,100753.81
2023-02-12T18:26:47.175Z,100759.19
2023-02-12T18:29:15.459Z,100754.66
2023-02-12T18:31:42.452Z,100746.75
2023-02-12T18:34:09.290Z,100750.06
2023-02-12T18:36:36.320Z,100746.53
2023-02-12T18:39:03.620Z,100749.25
2023-02-12T18:41:32.889Z,100758.34
2023-02-12T18:43:59.924Z,100757.53
2023-02-12T18:46:30.839Z,100760.06
2023-02-12T18:48:58.436Z,100759.19
2023-02-12T18:51:27.242Z,100755.47
2023-02-12T18:53:57.337Z,100755.66
2023-02-12T18:56:24.195Z,100757.53
2023-02-12T18:58:55.227Z,100756.50
2023-02-12T19:01:22.424Z,100752.13
2023-02-12T19:03:53.611Z,100759.19
2023-02-12T19:06:20.500Z,100753.81
2023-02-12T19:08:47.418Z,100750.25
2023-02-12T19:11:15.704Z,100748.41
2023-02-12T19:13:42.801Z,100746.75
2023-02-12T19:16:13.044Z,100744.03
2023-02-12T19:18:39.991Z,100736.94
2023-02-12T19:21:09.185Z,100744.22
2023-02-12T19:23:36.664Z,100735.28
2023-02-12T19:26:04.938Z,100740.50
2023-02-12T19:28:32.206Z,100745.03
2023-02-12T19:31:00.020Z,100745.03
2023-02-12T19:33:27.184Z,100751.28
2023-02-12T19:35:54.027Z,100745.03
2023-02-12T19:38:22.342Z,100745.88
2023-02-12T19:40:49.221Z,100748.59
2023-02-12T19:43:16.167Z,100750.44
2023-02-12T19:45:43.028Z,100743.19
2023-02-12T19:48:09.887Z,100748.59
2023-02-12T19:50:36.785Z,100747.75
2023-02-12T19:53:03.614Z,100741.34
2023-02-12T19:55:35.304Z,100752.13
2023-02-12T19:58:02.165Z,100746.75
2023-02-12T20:00:29.044Z,100750.44
2023-02-12T20:02:55.942Z,100741.53
2023-02-12T20:05:22.905Z,100749.63
2023-02-12T20:07:49.728Z,100745.03
2023-02-12T20:10:18.365Z,100739.66
2023-02-12T20:12:46.662Z,100739.66
2023-02-12T20:15:13.528Z,100742.16
2023-02-12T20:17:40.403Z,100741.34
2023-02-12T20:20:09.789Z,100740.50
2023-02-12T20:22:38.544Z,100745.03
2023-02-12T20:25:06.002Z,100737.78
2023-02-12T20:27:33.850Z,100734.25
2023-02-12T20:30:02.066Z,100739.66
2023-02-12T20:32:28.948Z,100734.25
2023-02-12T20:34:55.830Z,100739.88
2023-02-12T20:37:22.684Z,100743.38
2023-02-12T20:39:49.517Z,100743.56
2023-02-12T20:42:16.419Z,100746.09
2023-02-12T20:44:43.289Z,100746.75
2023-02-12T20:47:11.668Z,100750.44
2023-02-12T20:49:38.749Z,100746.28
2023-02-12T20:52:05.871Z,100745.84
2023-02-12T20:54:32.723Z,100748.72
2023-02-12T20:56:59.844Z,100740.81
2023-02-12T20:59:26.755Z,100749.09
2023-02-12T21:01:53.889Z,100746.16
2023-02-12T21:04:22.129Z,100742.31
2023-02-12T21:06:49.001Z,100748.09
2023-02-12T21:09:16.558Z,100751.41
2023-02-12T21:11:45.488Z,100739.13
2023-02-12T21:14:23.438Z,100736.16
2023-02-12T21:16:51.663Z,100738.22
2023-02-12T21:19:18.915Z,100736.56
2023-02-12T21:21:47.856Z,100740.47
2023-02-12T21:24:16.597Z,100746.06
2023-02-12T21:26:43.957Z,100734.59
2023-02-12T21:29:11.123Z,100741.22
2023-02-12T21:31:39.476Z,100745.16
2023-02-12T21:34:08.182Z,100745.50
2023-02-12T21:36:37.284Z,100741.34
2023-02-12T21:39:07.835Z,100742.56
2023-02-12T21:41:36.656Z,100748.16
2023-02-12T21:44:05.816Z,100751.03
2023-02-12T21:46:34.174Z,100749.56
2023-02-12T21:49:01.638Z,100753.47
2023-02-12T21:51:29.951Z,100746.78
2023-02-12T21:53:59.683Z,100748.84
2023-02-12T21:56:28.901Z,100755.44
2023-02-12T21:58:58.082Z,100755.66
2023-02-12T22:01:27.700Z,100758.53
2023-02-12T22:03:55.329Z,100758.34
2023-02-12T22:06:24.936Z,100755.81
2023-02-12T22:08:52.335Z,100758.72
2023-02-12T22:11:20.478Z,100749.94
2023-02-12T22:13:48.979Z,100750.81
2023-02-12T22:16:18.119Z,100749.94
2023-02-12T22:18:45.869Z,100753.69
2023-02-12T22:21:14.078Z,100752.84
2023-02-12T22:23:41.822Z,100753.06
2023-02-12T22:26:11.089Z,100757.97
2023-02-12T22:28:40.721Z,100753.41
2023-02-12T22:31:10.519Z,100759.81
2023-02-12T22:33:37.458Z,100762.69
2023-02-12T22:36:05.736Z,100761.84
2023-02-12T22:38:33.633Z,100754.78
2023-02-12T22:41:00.557Z,100749.56
2023-02-12T22:43:28.650Z,100758.69
2023-02-12T22:45:55.623Z,100749.13
2023-02-12T22:48:23.882Z,100759.91
2023-02-12T22:50:50.924Z,100757.22
2023-02-12T22:53:17.805Z,100757.59
2023-02-12T22:55:44.682Z,100755.91
2023-02-12T22:58:11.981Z,100764.00
2023-02-12T23:00:40.562Z,100758.81
2023-02-12T23:03:07.814Z,100757.09
2023-02-12T23:05:37.131Z,100757.09
2023-02-12T23:08:04.685Z,100758.31
2023-02-12T23:10:32.322Z,100759.16
2023-02-12T23:12:59.241Z,100763.88
2023-02-12T23:15:26.223Z,100766.97
2023-02-12T23:17:53.110Z,100773.00
2023-02-12T23:20:20.270Z,100776.19
2023-02-12T23:22:48.692Z,100773.75
2023-02-12T23:25:15.804Z,100779.78
2023-02-12T23:27:42.703Z,100771.16
2023-02-12T23:30:10.437Z,100769.75
2023-02-12T23:32:37.325Z,100775.63
2023-02-12T23:35:04.670Z,100776.09
2023-02-12T23:37:31.502Z,100772.19
2023-02-12T23:39:59.780Z,100771.81
2023-02-12T23:42:26.744Z,100776.00
2023-02-12T23:44:54.612Z,100771.59
2023-02-12T23:47:23.098Z,100769.75
2023-02-12T23:49:49.911Z,100774.97
2023-02-12T23:52:16.822Z,100773.13
2023-02-12T23:54:43.642Z,100768.72
2023-02-12T23:57:11.923Z,100768.72
2023-02-12T23:59:38.771Z,100763.50
